createdAt,value
2019-04-03T00:00:37.675Z,57.71
2019-04-03T00:01:37.854Z,57.81
2019-04-03T00:02:37.694Z,57.71
2019-04-03T00:03:37.659Z,57.51
2019-04-03T00:04:37.632Z,57.20
2019-04-03T00:05:37.625Z,57.71
2019-04-03T00:06:37.760Z,57.30
2019-04-03T00:07:37.614Z,57.81
2019-04-03T00:08:37.581Z,57.40
2019-04-03T00:09:37.609Z,57.40
2019-04-03T00:10:38.189Z,57.61
2019-04-03T00:11:39.499Z,57.61
2019-04-03T00:12:40.450Z,57.68
2019-04-03T00:13:37.558Z,57.61
2019-04-03T00:14:37.533Z,57.30
2019-04-03T00:15:37.540Z,57.17
2019-04-03T00:16:37.672Z,57.38
2019-04-03T00:17:37.487Z,57.30
2019-04-03T00:18:37.494Z,57.17
2019-04-03T00:19:37.482Z,57.71
2019-04-03T00:20:37.472Z,57.79
2019-04-03T00:21:37.653Z,57.28
2019-04-03T00:22:37.443Z,57.89
2019-04-03T00:23:37.432Z,57.79
2019-04-03T00:24:37.418Z,57.89
2019-04-03T00:25:37.535Z,57.89
2019-04-03T00:26:37.402Z,57.99
2019-04-03T00:27:37.423Z,57.89
2019-04-03T00:28:37.691Z,57.68
2019-04-03T00:29:37.383Z,57.58
2019-04-03T00:30:37.350Z,57.38
2019-04-03T00:31:37.347Z,57.38
2019-04-03T00:32:37.363Z,57.51
2019-04-03T00:33:37.337Z,58.12
2019-04-03T00:34:37.367Z,58.43
2019-04-03T00:35:37.323Z,58.22
2019-04-03T00:36:37.303Z,58.12
2019-04-03T00:37:37.322Z,58.02
2019-04-03T00:38:37.288Z,58.84
2019-04-03T00:39:37.425Z,58.53
2019-04-03T00:40:37.242Z,58.43
2019-04-03T00:41:37.243Z,58.33
2019-04-03T00:42:37.306Z,58.84
2019-04-03T00:43:37.244Z,58.22
2019-04-03T00:44:37.270Z,58.84
2019-04-03T00:45:37.222Z,59.35
2019-04-03T00:46:37.213Z,59.35
2019-04-03T00:47:37.186Z,59.35
2019-04-03T00:48:37.193Z,58.84
2019-04-03T00:49:37.166Z,58.84
2019-04-03T00:50:37.174Z,59.17
2019-04-03T00:51:37.175Z,59.55
2019-04-03T00:52:37.119Z,59.48
2019-04-03T00:53:37.126Z,59.35
2019-04-03T00:54:37.124Z,59.38
2019-04-03T00:55:37.230Z,59.66
2019-04-03T00:56:37.087Z,60.10
2019-04-03T00:57:37.085Z,59.78
2019-04-03T00:58:37.120Z,59.96
2019-04-03T00:59:37.062Z,60.19
2019-04-03T01:00:37.093Z,60.30
2019-04-03T01:01:37.045Z,60.19
2019-04-03T01:02:37.255Z,60.19
2019-04-03T01:03:37.030Z,60.30
2019-04-03T01:04:37.029Z,60.30
2019-04-03T01:05:37.071Z,60.30
2019-04-03T01:06:36.989Z,60.30
2019-04-03T01:07:36.982Z,60.10
2019-04-03T01:08:36.963Z,60.10
2019-04-03T01:09:36.995Z,60.30
2019-04-03T01:10:36.932Z,60.10
2019-04-03T01:11:36.939Z,60.10
2019-04-03T01:12:36.963Z,60.19
2019-04-03T01:13:36.908Z,60.30
2019-04-03T01:14:36.905Z,60.30
2019-04-03T01:15:36.879Z,60.19
2019-04-03T01:16:36.878Z,59.78
2019-04-03T01:17:36.858Z,60.10
2019-04-03T01:18:36.876Z,60.60
2019-04-03T01:19:37.069Z,60.12
2019-04-03T01:20:36.846Z,59.99
2019-04-03T01:21:37.503Z,60.10
2019-04-03T01:22:37.380Z,60.30
2019-04-03T01:23:38.015Z,60.40
2019-04-03T01:24:38.752Z,60.10
2019-04-03T01:25:39.125Z,60.10
2019-04-03T01:26:36.947Z,59.89
2019-04-03T01:27:36.748Z,60.74
2019-04-03T01:28:36.738Z,60.60
2019-04-03T01:29:36.771Z,60.50
2019-04-03T01:30:36.807Z,60.42
2019-04-03T01:31:36.718Z,61.04
2019-04-03T01:32:36.912Z,61.35
2019-04-03T01:33:36.703Z,61.55
2019-04-03T01:34:36.702Z,61.66
2019-04-03T01:35:36.709Z,61.76
2019-04-03T01:36:36.680Z,61.66
2019-04-03T01:37:36.683Z,61.55
2019-04-03T01:38:36.648Z,62.27
2019-04-03T01:39:36.663Z,62.48
2019-04-03T01:40:36.632Z,62.37
2019-04-03T01:41:36.649Z,61.76
2019-04-03T01:42:36.618Z,61.99
2019-04-03T01:43:36.753Z,61.76
2019-04-03T01:44:36.594Z,61.99
2019-04-03T01:45:36.597Z,62.92
2019-04-03T01:46:36.573Z,62.71
2019-04-03T01:47:36.560Z,62.81
2019-04-03T01:48:36.540Z,62.10
2019-04-03T01:49:36.548Z,62.19
2019-04-03T01:50:36.575Z,62.19
2019-04-03T01:51:36.538Z,63.02
2019-04-03T01:52:36.497Z,62.92
2019-04-03T01:53:36.493Z,63.43
2019-04-03T01:54:36.469Z,63.43
2019-04-03T01:55:36.474Z,63.56
2019-04-03T01:56:36.479Z,63.53
2019-04-03T01:57:37.098Z,63.76
2019-04-03T01:58:36.922Z,63.87
2019-04-03T01:59:37.565Z,63.66
2019-04-03T02:00:37.635Z,64.07
2019-04-03T02:01:36.603Z,63.87
2019-04-03T02:02:36.868Z,63.66
2019-04-03T02:03:36.377Z,64.17
2019-04-03T02:04:36.373Z,64.41
2019-04-03T02:05:36.366Z,64.82
2019-04-03T02:06:36.388Z,64.72
2019-04-03T02:07:36.366Z,64.72
2019-04-03T02:08:36.338Z,64.51
2019-04-03T02:09:36.335Z,64.72
2019-04-03T02:10:36.450Z,64.61
2019-04-03T02:11:36.298Z,64.51
2019-04-03T02:12:36.322Z,64.61
2019-04-03T02:13:36.299Z,65.23
2019-04-03T02:14:36.283Z,65.23
2019-04-03T02:15:36.253Z,65.23
2019-04-03T02:16:36.229Z,64.82
2019-04-03T02:17:36.274Z,64.61
2019-04-03T02:18:36.246Z,64.38
2019-04-03T02:19:36.210Z,64.41
2019-04-03T02:20:36.220Z,64.51
2019-04-03T02:21:36.188Z,64.82
2019-04-03T02:22:36.184Z,64.82
2019-04-03T02:23:36.204Z,65.03
2019-04-03T02:24:36.186Z,64.48
2019-04-03T02:25:36.158Z,65.03
2019-04-03T02:26:36.159Z,64.92
2019-04-03T02:27:36.126Z,65.12
2019-04-03T02:28:36.256Z,64.92
2019-04-03T02:29:36.107Z,65.03
2019-04-03T02:30:36.200Z,65.03
2019-04-03T02:31:36.091Z,64.82
2019-04-03T02:32:36.099Z,64.72
2019-04-03T02:33:36.154Z,64.41
2019-04-03T02:34:36.660Z,64.31
2019-04-03T02:35:38.999Z,64.20
2019-04-03T02:36:36.082Z,64.28
2019-04-03T02:37:36.143Z,64.48
2019-04-03T02:38:36.038Z,64.41
2019-04-03T02:39:36.042Z,64.31
2019-04-03T02:40:36.078Z,64.00
2019-04-03T02:41:37.399Z,64.07
2019-04-03T02:42:36.093Z,63.69
2019-04-03T02:43:35.985Z,64.31
2019-04-03T02:44:35.967Z,63.90
2019-04-03T02:45:35.958Z,63.90
2019-04-03T02:46:35.935Z,64.10
2019-04-03T02:47:35.921Z,64.38
2019-04-03T02:48:38.262Z,64.31
2019-04-03T02:49:35.890Z,64.51
2019-04-03T02:50:35.913Z,64.20
2019-04-03T02:51:36.050Z,64.31
2019-04-03T02:52:36.160Z,64.41
2019-04-03T02:53:35.900Z,64.51
2019-04-03T02:54:36.252Z,64.51
2019-04-03T02:55:39.016Z,65.23
2019-04-03T02:56:36.099Z,65.12
2019-04-03T02:57:35.873Z,65.33
2019-04-03T02:58:36.048Z,64.82
2019-04-03T02:59:35.801Z,65.12
2019-04-03T03:00:35.819Z,64.92
2019-04-03T03:01:38.367Z,65.03
2019-04-03T03:02:35.769Z,65.03
2019-04-03T03:03:35.896Z,64.51
2019-04-03T03:04:36.045Z,64.61
2019-04-03T03:05:35.742Z,65.20
2019-04-03T03:06:35.781Z,65.23
2019-04-03T03:07:36.451Z,64.92
2019-04-03T03:08:35.775Z,65.23
2019-04-03T03:09:35.690Z,65.20
2019-04-03T03:10:35.666Z,64.82
2019-04-03T03:11:35.697Z,64.41
2019-04-03T03:12:35.656Z,64.79
2019-04-03T03:13:36.196Z,64.79
2019-04-03T03:14:38.220Z,64.61
2019-04-03T03:15:35.692Z,64.51
2019-04-03T03:16:35.926Z,64.51
2019-04-03T03:17:35.601Z,64.61
2019-04-03T03:18:35.587Z,64.72
2019-04-03T03:19:35.759Z,64.72
2019-04-03T03:20:39.184Z,65.12
2019-04-03T03:21:35.569Z,64.92
2019-04-03T03:22:35.689Z,65.23
2019-04-03T03:23:35.810Z,64.82
2019-04-03T03:24:35.527Z,65.12
2019-04-03T03:25:35.715Z,65.23
2019-04-03T03:26:37.478Z,64.72
2019-04-03T03:27:35.717Z,64.51
2019-04-03T03:28:35.505Z,64.92
2019-04-03T03:29:35.479Z,64.41
2019-04-03T03:30:44.282Z,64.41
2019-04-03T03:32:03.128Z,64.61
2019-04-03T03:32:37.498Z,64.28
2019-04-03T03:33:38.910Z,64.28
2019-04-03T03:34:50.391Z,64.41
2019-04-03T03:35:41.436Z,64.51
2019-04-03T03:36:36.974Z,64.82
2019-04-03T03:37:35.973Z,64.92
2019-04-03T03:38:38.297Z,64.31
2019-04-03T03:39:35.372Z,64.41
2019-04-03T03:40:35.355Z,64.92
2019-04-03T03:41:35.387Z,64.82
2019-04-03T03:42:35.323Z,64.72
2019-04-03T03:43:38.263Z,64.72
2019-04-03T03:44:35.307Z,65.00
2019-04-03T03:45:35.297Z,64.82
2019-04-03T03:46:35.325Z,65.20
2019-04-03T03:47:36.383Z,65.12
2019-04-03T03:48:35.289Z,64.82
2019-04-03T03:49:35.633Z,65.03
2019-04-03T03:50:35.246Z,65.03
2019-04-03T03:51:35.275Z,64.82
2019-04-03T03:52:36.705Z,65.12
2019-04-03T03:53:35.527Z,65.33
2019-04-03T03:54:35.231Z,65.23
2019-04-03T03:55:35.535Z,65.23
2019-04-03T03:56:35.191Z,65.33
2019-04-03T03:57:38.004Z,65.03
2019-04-03T03:58:35.166Z,65.23
2019-04-03T03:59:35.165Z,65.33
2019-04-03T04:00:35.489Z,65.33
2019-04-03T04:01:35.125Z,65.12
2019-04-03T04:02:36.766Z,65.84
2019-04-03T04:03:35.110Z,65.23
2019-04-03T04:04:35.105Z,65.64
2019-04-03T04:05:35.130Z,65.64
2019-04-03T04:06:36.328Z,65.64
2019-04-03T04:07:37.403Z,65.64
2019-04-03T04:08:35.313Z,65.44
2019-04-03T04:09:35.085Z,65.54
2019-04-03T04:10:36.490Z,65.44
2019-04-03T04:11:35.240Z,65.44
2019-04-03T04:12:39.792Z,65.44
2019-04-03T04:13:36.038Z,65.44
2019-04-03T04:14:34.997Z,65.33
2019-04-03T04:15:35.003Z,65.54
2019-04-03T04:16:37.073Z,65.54
2019-04-03T04:17:34.996Z,65.57
2019-04-03T04:18:34.954Z,65.47
2019-04-03T04:19:34.955Z,65.44
2019-04-03T04:20:38.180Z,65.33
2019-04-03T04:21:35.253Z,65.36
2019-04-03T04:22:34.980Z,65.74
2019-04-03T04:23:35.127Z,66.05
2019-04-03T04:24:34.889Z,66.25
2019-04-03T04:25:34.921Z,66.46
2019-04-03T04:26:35.044Z,66.67
2019-04-03T04:27:37.786Z,66.05
2019-04-03T04:28:34.847Z,66.05
2019-04-03T04:29:34.866Z,65.74
2019-04-03T04:30:34.819Z,65.84
2019-04-03T04:31:35.044Z,65.84
2019-04-03T04:32:34.815Z,65.54
2019-04-03T04:33:34.796Z,65.74
2019-04-03T04:34:34.842Z,66.08
2019-04-03T04:35:34.798Z,65.98
2019-04-03T04:36:34.800Z,66.05
2019-04-03T04:37:34.775Z,66.05
2019-04-03T04:38:44.296Z,65.67
2019-04-03T04:39:34.719Z,66.05
2019-04-03T04:40:34.996Z,66.08
2019-04-03T04:41:34.720Z,65.95
2019-04-03T04:42:35.351Z,66.36
2019-04-03T04:43:34.699Z,66.08
2019-04-03T04:44:34.852Z,65.95
2019-04-03T04:45:34.644Z,65.95
2019-04-03T04:46:34.867Z,65.74
2019-04-03T04:47:34.729Z,66.16
2019-04-03T04:48:35.334Z,66.39
2019-04-03T04:49:34.614Z,66.56
2019-04-03T04:50:34.599Z,66.60
2019-04-03T04:51:34.732Z,66.46
2019-04-03T04:52:34.597Z,66.36
2019-04-03T04:53:34.595Z,66.36
2019-04-03T04:54:34.561Z,66.25
2019-04-03T04:55:35.665Z,66.16
2019-04-03T04:56:35.779Z,66.49
2019-04-03T04:57:34.612Z,66.16
2019-04-03T04:58:34.551Z,66.36
2019-04-03T04:59:36.356Z,66.67
2019-04-03T05:00:34.494Z,65.95
2019-04-03T05:01:34.522Z,66.60
2019-04-03T05:02:34.827Z,66.49
2019-04-03T05:03:34.465Z,66.56
2019-04-03T05:04:34.538Z,66.25
2019-04-03T05:05:34.552Z,66.46
2019-04-03T05:06:34.458Z,66.49
2019-04-03T05:07:34.620Z,66.56
2019-04-03T05:08:34.428Z,66.56
2019-04-03T05:09:35.427Z,66.25
2019-04-03T05:10:36.429Z,66.25
2019-04-03T05:11:34.377Z,66.36
2019-04-03T05:12:34.370Z,66.46
2019-04-03T05:13:34.363Z,66.70
2019-04-03T05:14:34.435Z,66.46
2019-04-03T05:15:34.352Z,66.67
2019-04-03T05:16:34.519Z,66.39
2019-04-03T05:17:34.318Z,66.46
2019-04-03T05:18:34.314Z,66.25
2019-04-03T05:19:34.369Z,65.95
2019-04-03T05:20:34.290Z,66.28
2019-04-03T05:21:34.269Z,66.46
2019-04-03T05:22:34.343Z,66.05
2019-04-03T05:23:34.264Z,66.36
2019-04-03T05:24:34.240Z,66.46
2019-04-03T05:25:34.490Z,66.56
2019-04-03T05:26:34.218Z,66.46
2019-04-03T05:27:34.794Z,66.36
2019-04-03T05:28:34.769Z,66.36
2019-04-03T05:29:34.759Z,66.56
2019-04-03T05:30:36.652Z,66.56
2019-04-03T05:31:34.441Z,66.46
2019-04-03T05:32:34.184Z,66.46
2019-04-03T05:33:34.335Z,66.36
2019-04-03T05:34:34.207Z,66.25
2019-04-03T05:35:34.134Z,66.67
2019-04-03T05:36:34.114Z,66.56
2019-04-03T05:37:34.103Z,66.36
2019-04-03T05:38:34.090Z,66.36
2019-04-03T05:39:34.112Z,66.25
2019-04-03T05:40:34.097Z,66.46
2019-04-03T05:41:34.053Z,66.43
2019-04-03T05:42:34.221Z,66.25
2019-04-03T05:43:34.063Z,66.36
2019-04-03T05:44:34.027Z,66.67
2019-04-03T05:45:35.368Z,66.05
2019-04-03T05:46:36.526Z,65.51
2019-04-03T05:47:34.011Z,65.33
2019-04-03T05:48:33.991Z,65.33
2019-04-03T05:49:33.983Z,65.64
2019-04-03T05:50:36.178Z,65.10
2019-04-03T05:51:33.965Z,65.20
2019-04-03T05:52:35.099Z,65.20
2019-04-03T05:53:36.688Z,64.89
2019-04-03T05:54:33.931Z,64.69
2019-04-03T05:55:34.245Z,64.65
2019-04-03T05:56:33.906Z,64.28
2019-04-03T05:57:33.893Z,64.25
2019-04-03T05:58:34.180Z,64.45
2019-04-03T05:59:33.880Z,63.84
2019-04-03T06:00:33.867Z,63.64
2019-04-03T06:01:33.846Z,63.64
2019-04-03T06:02:34.150Z,64.04
2019-04-03T06:03:42.307Z,63.60
2019-04-03T06:04:34.803Z,63.91
2019-04-03T06:05:33.800Z,63.40
2019-04-03T06:06:33.798Z,63.20
2019-04-03T06:07:33.813Z,63.29
2019-04-03T06:08:34.744Z,63.50
2019-04-03T06:09:33.802Z,62.88
2019-04-03T06:10:36.560Z,62.78
2019-04-03T06:11:33.742Z,62.68
2019-04-03T06:12:36.547Z,62.07
2019-04-03T06:13:33.745Z,62.17
2019-04-03T06:14:33.718Z,62.85
2019-04-03T06:15:33.701Z,62.04
2019-04-03T06:16:33.702Z,62.14
2019-04-03T06:17:33.686Z,62.65
2019-04-03T06:18:33.685Z,62.07
2019-04-03T06:19:35.212Z,61.93
2019-04-03T06:20:33.658Z,61.93
2019-04-03T06:21:33.767Z,61.83
2019-04-03T06:22:33.633Z,61.73
2019-04-03T06:23:33.849Z,62.14
2019-04-03T06:24:33.622Z,61.91
2019-04-03T06:25:33.744Z,61.40
2019-04-03T06:26:33.584Z,61.40
2019-04-03T06:27:33.571Z,61.40
2019-04-03T06:28:33.618Z,60.24
2019-04-03T06:29:33.573Z,60.03
2019-04-03T06:30:33.533Z,60.31
2019-04-03T06:31:33.542Z,60.11
2019-04-03T06:32:33.522Z,60.21
2019-04-03T06:33:35.030Z,59.91
2019-04-03T06:34:34.329Z,60.08
2019-04-03T06:35:35.162Z,59.37
2019-04-03T06:36:33.509Z,59.57
2019-04-03T06:37:34.406Z,59.27
2019-04-03T06:38:33.473Z,63.35
2019-04-03T06:39:33.606Z,60.05
2019-04-03T06:40:35.150Z,57.91
2019-04-03T06:41:33.559Z,57.78
2019-04-03T06:42:33.498Z,56.96
2019-04-03T06:43:33.700Z,57.07
2019-04-03T06:44:33.386Z,57.57
2019-04-03T06:45:33.396Z,57.07
2019-04-03T06:46:33.367Z,56.86
2019-04-03T06:47:33.375Z,57.17
2019-04-03T06:48:34.656Z,56.73
2019-04-03T06:49:33.347Z,56.73
2019-04-03T06:50:33.337Z,57.75
2019-04-03T06:51:33.352Z,56.63
2019-04-03T06:52:33.309Z,56.94
2019-04-03T06:53:33.312Z,56.53
2019-04-03T06:54:33.300Z,56.76
2019-04-03T06:55:35.602Z,56.32
2019-04-03T06:56:33.289Z,56.63
2019-04-03T06:57:33.258Z,56.94
2019-04-03T06:58:39.367Z,56.94
2019-04-03T06:59:34.241Z,56.73
2019-04-03T07:00:33.244Z,56.63
2019-04-03T07:01:33.221Z,56.43
2019-04-03T07:02:33.211Z,56.43
2019-04-03T07:03:34.329Z,56.32
2019-04-03T07:04:33.405Z,56.63
2019-04-03T07:05:33.188Z,56.53
2019-04-03T07:06:33.258Z,56.60
2019-04-03T07:07:35.451Z,56.20
2019-04-03T07:08:35.389Z,55.89
2019-04-03T07:09:36.548Z,55.28
2019-04-03T07:10:34.548Z,54.94
2019-04-03T07:11:34.169Z,55.46
2019-04-03T07:12:33.179Z,54.24
2019-04-03T07:13:34.285Z,54.54
2019-04-03T07:14:33.279Z,54.44
2019-04-03T07:15:33.105Z,54.54
2019-04-03T07:16:33.063Z,54.61
2019-04-03T07:17:33.086Z,54.41
2019-04-03T07:18:33.066Z,54.21
2019-04-03T07:19:33.224Z,54.31
2019-04-03T07:20:33.044Z,53.67
2019-04-03T07:21:33.007Z,54.18
2019-04-03T07:22:35.854Z,53.27
2019-04-03T07:23:33.012Z,52.96
2019-04-03T07:24:32.979Z,52.96
2019-04-03T07:25:33.962Z,53.44
2019-04-03T07:26:35.124Z,53.04
2019-04-03T07:27:32.996Z,53.14
2019-04-03T07:28:33.137Z,52.63
2019-04-03T07:29:32.936Z,52.83
2019-04-03T07:30:33.897Z,52.63
2019-04-03T07:31:32.913Z,53.02
2019-04-03T07:32:33.842Z,52.50
2019-04-03T07:33:32.895Z,51.48
2019-04-03T07:34:35.860Z,52.00
2019-04-03T07:35:33.946Z,52.00
2019-04-03T07:36:32.860Z,51.28
2019-04-03T07:37:35.065Z,51.26
2019-04-03T07:38:35.654Z,51.46
2019-04-03T07:39:33.425Z,51.87
2019-04-03T07:40:32.834Z,51.67
2019-04-03T07:41:33.780Z,50.93
2019-04-03T07:42:32.799Z,50.73
2019-04-03T07:43:32.852Z,50.62
2019-04-03T07:44:32.796Z,50.93
2019-04-03T07:45:33.490Z,50.70
2019-04-03T07:46:33.222Z,51.54
2019-04-03T07:47:34.346Z,50.83
2019-04-03T07:48:33.534Z,50.70
2019-04-03T07:49:32.732Z,50.50
2019-04-03T07:50:32.724Z,50.32
2019-04-03T07:51:32.689Z,50.20
2019-04-03T07:52:32.693Z,50.22
2019-04-03T07:53:32.673Z,49.99
2019-04-03T07:54:32.672Z,50.32
2019-04-03T07:55:32.655Z,50.40
2019-04-03T07:56:32.633Z,50.20
2019-04-03T07:57:32.625Z,50.09
2019-04-03T07:58:32.704Z,50.48
2019-04-03T07:59:34.256Z,50.37
2019-04-03T08:00:32.629Z,49.33
2019-04-03T08:01:32.592Z,49.95
2019-04-03T08:02:33.967Z,50.25
2019-04-03T08:03:32.568Z,49.62
2019-04-03T08:04:32.571Z,48.60
2019-04-03T08:05:32.543Z,48.71
2019-04-03T08:06:34.475Z,48.71
2019-04-03T08:07:32.697Z,48.60
2019-04-03T08:08:32.651Z,48.38
2019-04-03T08:09:32.650Z,47.89
2019-04-03T08:10:32.504Z,47.87
2019-04-03T08:11:32.778Z,47.26
2019-04-03T08:12:34.563Z,47.59
2019-04-03T08:13:32.488Z,48.07
2019-04-03T08:14:32.513Z,47.87
2019-04-03T08:15:32.446Z,48.18
2019-04-03T08:16:32.421Z,47.97
2019-04-03T08:17:32.495Z,48.15
2019-04-03T08:18:32.401Z,47.54
2019-04-03T08:19:32.392Z,47.34
2019-04-03T08:20:32.442Z,46.63
2019-04-03T08:21:32.381Z,46.53
2019-04-03T08:22:33.352Z,46.91
2019-04-03T08:23:32.550Z,47.02
2019-04-03T08:24:32.352Z,47.03
2019-04-03T08:25:32.342Z,46.51
2019-04-03T08:26:32.378Z,46.91
2019-04-03T08:27:32.319Z,46.20
2019-04-03T08:28:32.307Z,46.79
2019-04-03T08:29:33.712Z,46.38
2019-04-03T08:30:32.292Z,46.18
2019-04-03T08:31:32.262Z,46.08
2019-04-03T08:32:32.337Z,46.36
2019-04-03T08:33:33.110Z,45.75
2019-04-03T08:34:32.259Z,45.55
2019-04-03T08:35:32.829Z,45.45
2019-04-03T08:36:32.222Z,44.84
2019-04-03T08:37:32.776Z,45.43
2019-04-03T08:38:32.242Z,45.43
2019-04-03T08:39:32.207Z,45.23
2019-04-03T08:40:32.234Z,45.23
2019-04-03T08:41:32.341Z,44.42
2019-04-03T08:42:32.982Z,44.92
2019-04-03T08:43:33.094Z,44.92
2019-04-03T08:44:32.136Z,44.80
2019-04-03T08:45:32.122Z,44.17
2019-04-03T08:46:32.128Z,44.68
2019-04-03T08:47:32.166Z,44.07
2019-04-03T08:48:32.126Z,44.07
2019-04-03T08:49:32.077Z,43.67
2019-04-03T08:50:32.261Z,43.67
2019-04-03T08:51:33.959Z,43.44
2019-04-03T08:52:32.084Z,43.57
2019-04-03T08:53:32.035Z,43.44
2019-04-03T08:54:32.036Z,43.14
2019-04-03T08:55:32.009Z,43.44
2019-04-03T08:56:31.991Z,42.54
2019-04-03T08:57:31.994Z,42.61
2019-04-03T08:58:32.022Z,42.72
2019-04-03T08:59:31.990Z,42.61
2019-04-03T09:00:32.743Z,41.91
2019-04-03T09:01:31.945Z,42.41
2019-04-03T09:02:32.077Z,41.18
2019-04-03T09:03:31.934Z,41.28
2019-04-03T09:04:31.930Z,41.59
2019-04-03T09:05:31.911Z,41.59
2019-04-03T09:06:31.894Z,41.18
2019-04-03T09:07:31.888Z,40.88
2019-04-03T09:08:31.904Z,41.30
2019-04-03T09:09:34.761Z,42.21
2019-04-03T09:10:34.778Z,41.81
2019-04-03T09:11:31.846Z,42.41
2019-04-03T09:12:31.978Z,42.52
2019-04-03T09:13:31.813Z,41.91
2019-04-03T09:14:31.850Z,41.81
2019-04-03T09:15:31.790Z,42.32
2019-04-03T09:16:32.212Z,41.71
2019-04-03T09:17:33.928Z,42.41
2019-04-03T09:18:31.926Z,41.61
2019-04-03T09:19:31.774Z,41.49
2019-04-03T09:20:34.712Z,41.81
2019-04-03T09:21:31.736Z,41.59
2019-04-03T09:22:32.057Z,40.98
2019-04-03T09:23:31.901Z,41.18
2019-04-03T09:24:31.720Z,41.39
2019-04-03T09:25:32.490Z,41.56
2019-04-03T09:26:34.891Z,40.56
2019-04-03T09:27:32.692Z,40.46
2019-04-03T09:28:31.697Z,40.96
2019-04-03T09:29:31.695Z,40.94
2019-04-03T09:30:31.677Z,40.94
2019-04-03T09:31:31.931Z,40.23
2019-04-03T09:32:31.621Z,40.03
2019-04-03T09:33:31.708Z,39.31
2019-04-03T09:34:33.918Z,39.81
2019-04-03T09:35:32.764Z,38.99
2019-04-03T09:36:32.880Z,38.79
2019-04-03T09:37:31.569Z,40.00
2019-04-03T09:38:31.879Z,38.99
2019-04-03T09:39:31.636Z,39.29
2019-04-03T09:40:31.705Z,39.39
2019-04-03T09:41:31.707Z,39.37
2019-04-03T09:42:31.543Z,39.48
2019-04-03T09:43:31.498Z,38.47
2019-04-03T09:44:31.541Z,38.57
2019-04-03T09:45:31.515Z,38.65
2019-04-03T09:46:31.929Z,38.27
2019-04-03T09:47:33.616Z,38.45
2019-04-03T09:48:31.445Z,37.56
2019-04-03T09:49:31.430Z,37.74
2019-04-03T09:50:31.433Z,37.76
2019-04-03T09:51:31.440Z,38.25
2019-04-03T09:52:39.524Z,37.46
2019-04-03T09:53:32.646Z,38.67
2019-04-03T09:54:31.799Z,37.96
2019-04-03T09:55:35.902Z,38.77
2019-04-03T09:56:32.483Z,37.45
2019-04-03T09:57:31.891Z,37.24
2019-04-03T09:58:31.341Z,37.76
2019-04-03T09:59:31.575Z,38.05
2019-04-03T10:00:31.308Z,38.75
2019-04-03T10:01:31.312Z,38.67
2019-04-03T10:02:31.302Z,38.27
2019-04-03T10:03:31.705Z,38.07
2019-04-03T10:04:31.854Z,37.96
2019-04-03T10:05:31.640Z,37.56
2019-04-03T10:06:31.955Z,38.67
2019-04-03T10:07:32.037Z,38.67
2019-04-03T10:08:31.742Z,38.35
2019-04-03T10:09:31.234Z,38.05
2019-04-03T10:10:31.495Z,37.65
2019-04-03T10:11:31.309Z,37.95
2019-04-03T10:12:32.333Z,37.85
2019-04-03T10:13:31.370Z,38.05
2019-04-03T10:14:31.186Z,37.54
2019-04-03T10:15:31.961Z,37.65
2019-04-03T10:16:31.150Z,37.04
2019-04-03T10:17:31.288Z,37.45
2019-04-03T10:18:31.478Z,37.45
2019-04-03T10:19:31.386Z,37.45
2019-04-03T10:20:31.118Z,37.06
2019-04-03T10:21:33.117Z,36.94
2019-04-03T10:22:31.094Z,37.45
2019-04-03T10:23:31.114Z,37.24
2019-04-03T10:24:31.715Z,37.24
2019-04-03T10:25:31.075Z,37.14
2019-04-03T10:26:31.843Z,37.14
2019-04-03T10:27:31.338Z,37.14
2019-04-03T10:28:31.055Z,37.24
2019-04-03T10:29:31.054Z,37.34
2019-04-03T10:30:31.047Z,37.14
2019-04-03T10:31:30.998Z,37.34
2019-04-03T10:32:31.280Z,37.14
2019-04-03T10:33:32.374Z,36.74
2019-04-03T10:34:30.968Z,36.74
2019-04-03T10:35:30.968Z,36.33
2019-04-03T10:36:30.952Z,35.83
2019-04-03T10:37:31.178Z,36.44
2019-04-03T10:38:30.934Z,36.44
2019-04-03T10:39:30.925Z,36.33
2019-04-03T10:40:30.931Z,36.54
2019-04-03T10:41:30.912Z,36.64
2019-04-03T10:42:31.784Z,36.74
2019-04-03T10:43:30.882Z,36.13
2019-04-03T10:44:30.902Z,35.93
2019-04-03T10:45:30.887Z,36.94
2019-04-03T10:46:30.864Z,36.54
2019-04-03T10:47:41.040Z,35.93
2019-04-03T10:48:32.113Z,36.04
2019-04-03T10:49:32.442Z,36.44
2019-04-03T10:50:30.835Z,36.44
2019-04-03T10:51:31.775Z,36.74
2019-04-03T10:52:30.782Z,36.44
2019-04-03T10:53:30.852Z,36.62
2019-04-03T10:54:30.752Z,36.24
2019-04-03T10:55:30.757Z,36.42
2019-04-03T10:56:31.190Z,35.91
2019-04-03T10:57:31.743Z,36.32
2019-04-03T10:58:30.713Z,36.50
2019-04-03T10:59:30.723Z,36.50
2019-04-03T11:00:30.722Z,36.50
2019-04-03T11:01:30.934Z,36.22
2019-04-03T11:02:30.819Z,36.30
2019-04-03T11:03:30.748Z,36.50
2019-04-03T11:04:30.814Z,36.30
2019-04-03T11:05:30.644Z,36.10
2019-04-03T11:06:30.616Z,36.20
2019-04-03T11:07:30.630Z,36.50
2019-04-03T11:08:30.625Z,35.70
2019-04-03T11:09:30.612Z,35.80
2019-04-03T11:10:31.000Z,35.60
2019-04-03T11:11:30.632Z,35.50
2019-04-03T11:12:31.860Z,35.48
2019-04-03T11:13:33.732Z,35.88
2019-04-03T11:14:30.562Z,35.98
2019-04-03T11:15:30.536Z,35.36
2019-04-03T11:16:30.723Z,34.36
2019-04-03T11:17:30.546Z,34.96
2019-04-03T11:18:30.515Z,35.55
2019-04-03T11:19:30.524Z,35.35
2019-04-03T11:20:30.640Z,35.23
2019-04-03T11:21:30.777Z,35.33
2019-04-03T11:22:40.431Z,35.11
2019-04-03T11:23:40.151Z,35.31
2019-04-03T11:24:31.454Z,34.01
2019-04-03T11:25:30.566Z,34.41
2019-04-03T11:26:30.425Z,34.80
2019-04-03T11:27:41.789Z,33.79
2019-04-03T11:28:31.697Z,33.49
2019-04-03T11:29:30.629Z,33.49
2019-04-03T11:30:30.640Z,33.99
2019-04-03T11:31:33.555Z,33.39
2019-04-03T11:32:31.357Z,34.21
2019-04-03T11:33:30.342Z,34.71
2019-04-03T11:34:30.330Z,34.41
2019-04-03T11:35:30.574Z,34.42
2019-04-03T11:36:31.168Z,34.33
2019-04-03T11:37:33.085Z,33.83
2019-04-03T11:38:30.294Z,34.92
2019-04-03T11:39:30.409Z,34.41
2019-04-03T11:40:30.271Z,34.51
2019-04-03T11:41:30.261Z,34.49
2019-04-03T11:42:30.546Z,34.67
2019-04-03T11:43:31.425Z,34.48
2019-04-03T11:44:30.237Z,34.17
2019-04-03T11:45:30.509Z,33.46
2019-04-03T11:46:30.192Z,34.26
2019-04-03T11:47:30.208Z,32.96
2019-04-03T11:48:30.177Z,33.66
2019-04-03T11:49:30.192Z,33.54
2019-04-03T11:50:30.181Z,33.24
2019-04-03T11:51:30.300Z,33.26
2019-04-03T11:52:30.168Z,33.14
2019-04-03T11:53:30.641Z,32.84
2019-04-03T11:54:30.120Z,33.93
2019-04-03T11:55:30.123Z,31.74
2019-04-03T11:56:30.129Z,31.84
2019-04-03T11:57:30.099Z,33.56
2019-04-03T11:58:30.070Z,33.04
2019-04-03T11:59:30.061Z,32.94
2019-04-03T12:00:30.085Z,32.64
2019-04-03T12:01:30.060Z,32.74
2019-04-03T12:02:30.347Z,32.84
2019-04-03T12:03:30.034Z,33.14
2019-04-03T12:04:30.199Z,33.03
2019-04-03T12:05:30.442Z,32.43
2019-04-03T12:06:30.014Z,32.53
2019-04-03T12:07:29.997Z,31.93
2019-04-03T12:08:30.311Z,32.12
2019-04-03T12:09:31.603Z,32.43
2019-04-03T12:10:29.950Z,32.62
2019-04-03T12:11:29.957Z,32.21
2019-04-03T12:12:29.933Z,32.41
2019-04-03T12:13:29.936Z,32.01
2019-04-03T12:14:29.940Z,31.59
2019-04-03T12:15:30.153Z,31.40
2019-04-03T12:16:30.146Z,31.20
2019-04-03T12:17:30.876Z,32.50
2019-04-03T12:18:33.068Z,32.61
2019-04-03T12:19:29.875Z,33.01
2019-04-03T12:20:29.854Z,32.91
2019-04-03T12:21:30.191Z,33.29
2019-04-03T12:22:29.863Z,32.98
2019-04-03T12:23:30.152Z,33.08
2019-04-03T12:24:29.806Z,32.67
2019-04-03T12:25:29.809Z,33.16
2019-04-03T12:26:29.773Z,32.95
2019-04-03T12:27:29.778Z,32.53
2019-04-03T12:28:29.759Z,31.60
2019-04-03T12:29:29.752Z,31.09
2019-04-03T12:30:29.742Z,31.37
2019-04-03T12:31:29.738Z,31.27
2019-04-03T12:32:37.070Z,30.98
2019-04-03T12:33:31.151Z,31.19
2019-04-03T12:34:29.694Z,30.79
2019-04-03T12:35:29.713Z,31.30
2019-04-03T12:36:29.700Z,31.72
2019-04-03T12:37:29.662Z,31.84
2019-04-03T12:38:29.780Z,31.63
2019-04-03T12:39:29.755Z,31.34
2019-04-03T12:40:30.276Z,31.87
2019-04-03T12:41:29.820Z,31.96
2019-04-03T12:42:29.922Z,32.06
2019-04-03T12:43:29.691Z,32.58
2019-04-03T12:44:29.970Z,31.96
2019-04-03T12:45:29.581Z,31.88
2019-04-03T12:46:32.814Z,32.18
2019-04-03T12:47:29.557Z,32.08
2019-04-03T12:48:29.555Z,33.08
2019-04-03T12:49:29.645Z,32.98
2019-04-03T12:50:29.525Z,32.98
2019-04-03T12:51:31.577Z,32.40
2019-04-03T12:52:29.770Z,32.40